Forside
METAR-TAF:

METAR-TAF

Lufthavne :

Gran Canaria Lufthavn

Gran Canaria, Spanien

Breddekreds: 27-56N, længdekreds: 015-23W, højde: 23 m

Aktuelle vejr

Denne rapport blev lavet for 39 minutter siden, kl. 12:30 UTC
Vind 20 kt fra nord med vindstød på up til 30 kt, varierende mellem nordnordvest og nordøst
Temperatur 25°C
Fugtighed 54%
Tryk 1019 hPa
Sigt 10 km eller mere
Nogle få skyer i en højde af 3000 ft

METAR: GCLP 221230Z 01020G30KT 330V050 9999 FEW030 25/15 Q1019 NOSIG

Tid: 14:09 (13:09 UTC)

Vejrudsigter

Denne rapport blev lavet for 3 timer og 8 minutter siden, kl. 10:01 UTC
Foreløbig gælder fra 22 på 10 UTC til 23 på 09 UTC
Vind 18 kt fra nordnordøst
Sigt 10 km eller mere
Brudte skyer i en højde af 2500 ft
Sandsynlighed 30% :
Midlertidig
fra 22 på 10 UTC til 22 på 20 UTC
Vind 20 kt fra nord med vindstød på up til 30 kt

TAF: GCLP 221001Z 2210/2309 02018KT 9999 BKN025 TX26/2215Z TN19/2305Z PROB30 TEMPO 2210/2220 36020G30KT

Vejrobservationer og prognoser fra mere end 4000 lufthavne (METAR og TAF).

De gule og røde prikker repræsenterer de meteorologiske stationer.

Flyt musen over at se navnet på stationen.

Så klik over at se vejr observationer og prognoser.

At skifte det kort: Klik på de grønne knapper med et sort kors for at zoome ind; på den grønne knap med en bindestreg for at zoome ud; eller på de grønne pile for tilstødende kort.


METAR-TAF: